AirNav   Bose Proflight Series 2 Wireless Aviation Headset
 
 1037 users online  

42FD Palm Beach State College Heliport
Lake Worth, Florida, USA

GOING TO LAKE WORTH?


FAA INFORMATION EFFECTIVE 07 NOVEMBER 2019

Location

FAA Identifier: 42FD
Lat/Long: 26-36-36.7800N 080-05-17.1700W
26-36.613000N 080-05.286167W
26.6102167,-80.0881028
(estimated)
Elevation: 13 ft. / 4 m (estimated)
From city: 4 miles W of LAKE WORTH, FL
Time zone: UTC -5 (UTC -4 during Daylight Saving Time)
Zip code: 33461

Heliport Operations

Heliport use: Private use. Permission required prior to landing
Activation date: 09/2004
Control tower: no
ARTCC: MIAMI CENTER
FSS: MIAMI FLIGHT SERVICE STATION
Attendance: UNATNDD
Wind indicator: yes
Segmented circle: no

Heliport Communications

WX AWOS-3PT at LNA (1.0 nm S): 119.925 (561-964-0308)
WX ASOS at PBI (4 nm N): 123.75 (561-683-2548)
WX AWOS-3 at BCT (14 nm S): 121.125 (561-391-2696)
WX AWOS-3 at F45 (16 nm NW): 119.975 (561-630-6932)

Nearby radio navigation aids

VOR radial/distance  VOR name  Freq  Var
PBIr184/4.2PALM BEACH VORTAC115.7003W
FLLr013/32.5FORT LAUDERDALE VOR/DME114.4006W
PHKr108/34.0PAHOKEE VOR/DME115.4000E

 
NDB name  Hdg/Dist  Freq  Var  ID
UNITED149/22.340505WUTX ..- - -..-

Heliport Services

Runway Information

Helipad H1

Dimensions: 40 x 40 ft. / 12 x 12 m
Surface: concrete
Operational restrictions: CIRCULAR HELIPAD
Latitude: 26-36.613000N
Longitude: 080-05.286167W
Elevation: 13.0 ft.
Traffic pattern: leftleft

Heliport Ownership and Management from official FAA records

Ownership: Privately-owned
Owner: PALM BEACH STATE COLLEGE
4200 CONGRESS AVENUE
LAKE WORTH, FL 33461
Phone 561-868-3615
Manager: JOHN T. WASUKANIS
4200 CONGRESS AVENUE
LAKE WORTH, FL 33461
Phone 561-868-3615

Additional Remarks

OWNER DESIRES ARPT NOT BE CHARTED.
FOR CD CTC PALM BEACH APCH AT 561-275-1430

Instrument Procedures

There are no published instrument procedures at 42FD.

Some nearby airports with instrument procedures:

KLNA - Palm Beach County Park Airport (1 nm S)
KPBI - Palm Beach International Airport (4 nm N)
KBCT - Boca Raton Airport (14 nm S)
F45 - North Palm Beach County General Aviation Airport (16 nm NW)
KPMP - Pompano Beach Airpark (22 nm S)
 
Loc | Ops | Rwys | IFR | FBO | Links
Com | Nav | Svcs | Stats | Notes


 
Area around 42FD (Palm Beach State College Heliport)
 
Road maps at: MapQuest Bing Google
 
Aerial photo
No photo
 
Sectional chart

 
Airport distance calculator
Flying to Palm Beach State College Heliport? Find the distance to fly.

From to 42FD

Sunrise and sunset
Times for 17-Nov-2019
 Local
(UTC-5)
 Zulu
(UTC)
Morning civil twilight06:1811:18
Sunrise06:4211:42
Sunset17:2922:29
Evening civil twilight17:5322:53

Current date and time
Zulu (UTC)  18-Nov-2019 01:58:26
Local (UTC-5)  17-Nov-2019 20:58:26
 
METAR
KLNA 180155Z AUTO 31007KT 10SM OVC013 16/14 A2990 RMK AO2 T01630136 PNO
KPBI 
4nm N 
180153Z 28008KT 10SM OVC012 15/12 A2989 RMK AO2 SLP121 T01500117 $
KBCT 
14nm S 
180047Z 32005KT 10SM OVC017 17/13 A2987
KF45 
16nm NW 
180130Z AUTO 32006KT 10SM OVC011 14/13 A2990 RMK AO2 TSNO
TAF
KPBI 
4nm N 
172050Z 1721/1818 31011KT P6SM SCT025 TEMPO 1721/1722 OVC015 FM180000 29003KT P6SM SCT020 FM181500 28010KT P6SM SCT025 SCT050
NOTAMs
Click for the latest NOTAMs
NOTAMs are issued by the DoD/FAA and will open in a separate window not controlled by AirNav.

 

 
 

Would you like to see your business listed on this page?

 If your business provides an interesting product or service to pilots, flight crews, aircraft, or users of the Palm Beach State College Heliport, you should consider listing it here.  To start the listing process, click on the button below
 
Add a business
 

Other Pages about Palm Beach State College Heliport

Update a link
 
Copyright © AirNav, LLC. All rights reserved. Privacy Policy  Contact